sensor_id;sensor_type;location;lat;lon;timestamp;temperature;humidity
53282;DHT22;39167;52.794;6.892;2023-04-01T00:00:55;10.00;99.90
53282;DHT22;39167;52.794;6.892;2023-04-01T00:03:22;10.00;99.90
53282;DHT22;39167;52.794;6.892;2023-04-01T00:05:48;10.00;99.90
53282;DHT22;39167;52.794;6.892;2023-04-01T00:08:14;10.00;99.90
53282;DHT22;39167;52.794;6.892;2023-04-01T00:10:40;10.00;99.90
53282;DHT22;39167;52.794;6.892;2023-04-01T00:13:06;10.00;99.90
53282;DHT22;39167;52.794;6.892;2023-04-01T00:15:32;10.00;99.90
53282;DHT22;39167;52.794;6.892;2023-04-01T00:17:58;10.00;99.90
53282;DHT22;39167;52.794;6.892;2023-04-01T00:20:25;10.00;99.90
53282;DHT22;39167;52.794;6.892;2023-04-01T00:22:51;10.00;99.90
53282;DHT22;39167;52.794;6.892;2023-04-01T00:25:17;10.00;99.90
53282;DHT22;39167;52.794;6.892;2023-04-01T00:27:43;10.00;99.90
53282;DHT22;39167;52.794;6.892;2023-04-01T00:30:09;10.00;99.90
53282;DHT22;39167;52.794;6.892;2023-04-01T00:32:35;10.00;99.90
53282;DHT22;39167;52.794;6.892;2023-04-01T00:35:01;10.00;99.90
53282;DHT22;39167;52.794;6.892;2023-04-01T00:37:28;10.00;99.90
53282;DHT22;39167;52.794;6.892;2023-04-01T00:39:55;10.00;99.90
53282;DHT22;39167;52.794;6.892;2023-04-01T00:42:20;10.00;99.90
53282;DHT22;39167;52.794;6.892;2023-04-01T00:44:54;10.00;99.90
53282;DHT22;39167;52.794;6.892;2023-04-01T00:47:21;10.00;99.90
53282;DHT22;39167;52.794;6.892;2023-04-01T00:49:50;10.00;99.90
53282;DHT22;39167;52.794;6.892;2023-04-01T00:52:22;10.00;99.90
53282;DHT22;39167;52.794;6.892;2023-04-01T00:54:53;10.00;99.90
53282;DHT22;39167;52.794;6.892;2023-04-01T00:57:27;10.00;99.90
53282;DHT22;39167;52.794;6.892;2023-04-01T00:59:55;10.00;99.90
53282;DHT22;39167;52.794;6.892;2023-04-01T01:02:21;9.90;99.90
53282;DHT22;39167;52.794;6.892;2023-04-01T01:04:47;9.90;99.90
53282;DHT22;39167;52.794;6.892;2023-04-01T01:07:26;9.90;99.90
53282;DHT22;39167;52.794;6.892;2023-04-01T01:12:49;9.90;99.90
53282;DHT22;39167;52.794;6.892;2023-04-01T01:15:30;9.90;99.90
53282;DHT22;39167;52.794;6.892;2023-04-01T01:18:10;9.90;99.90
53282;DHT22;39167;52.794;6.892;2023-04-01T01:37:19;9.80;99.90
53282;DHT22;39167;52.794;6.892;2023-04-01T01:39:49;9.90;99.90
53282;DHT22;39167;52.794;6.892;2023-04-01T01:42:17;9.90;99.90
53282;DHT22;39167;52.794;6.892;2023-04-01T01:44:45;9.90;99.90
53282;DHT22;39167;52.794;6.892;2023-04-01T01:47:13;9.90;99.90
53282;DHT22;39167;52.794;6.892;2023-04-01T01:49:41;9.90;99.90
53282;DHT22;39167;52.794;6.892;2023-04-01T01:52:08;9.90;99.90
53282;DHT22;39167;52.794;6.892;2023-04-01T01:54:34;9.90;99.90
53282;DHT22;39167;52.794;6.892;2023-04-01T01:57:08;9.90;99.90
53282;DHT22;39167;52.794;6.892;2023-04-01T01:59:37;9.90;99.90
53282;DHT22;39167;52.794;6.892;2023-04-01T02:02:03;9.90;99.90
53282;DHT22;39167;52.794;6.892;2023-04-01T02:04:38;9.90;99.90
53282;DHT22;39167;52.794;6.892;2023-04-01T02:07:06;9.90;99.90
53282;DHT22;39167;52.794;6.892;2023-04-01T02:09:33;9.90;99.90
53282;DHT22;39167;52.794;6.892;2023-04-01T02:12:04;9.80;99.90
53282;DHT22;39167;52.794;6.892;2023-04-01T02:14:42;9.80;99.90
53282;DHT22;39167;52.794;6.892;2023-04-01T02:17:23;9.90;99.90
53282;DHT22;39167;52.794;6.892;2023-04-01T02:19:53;9.90;99.90
53282;DHT22;39167;52.794;6.892;2023-04-01T02:22:28;9.90;99.90
53282;DHT22;39167;52.794;6.892;2023-04-01T02:24:58;9.80;99.90
53282;DHT22;39167;52.794;6.892;2023-04-01T02:27:25;9.90;99.90
53282;DHT22;39167;52.794;6.892;2023-04-01T02:29:51;9.90;99.90
53282;DHT22;39167;52.794;6.892;2023-04-01T02:32:19;9.90;99.90
53282;DHT22;39167;52.794;6.892;2023-04-01T02:34:46;9.90;99.90
53282;DHT22;39167;52.794;6.892;2023-04-01T02:37:13;9.80;99.90
53282;DHT22;39167;52.794;6.892;2023-04-01T02:39:39;9.80;99.90
53282;DHT22;39167;52.794;6.892;2023-04-01T02:42:06;9.80;99.90
53282;DHT22;39167;52.794;6.892;2023-04-01T02:44:32;9.90;99.90
53282;DHT22;39167;52.794;6.892;2023-04-01T02:46:57;9.90;99.90
53282;DHT22;39167;52.794;6.892;2023-04-01T02:49:23;9.80;99.90
53282;DHT22;39167;52.794;6.892;2023-04-01T02:51:49;9.90;99.90
53282;DHT22;39167;52.794;6.892;2023-04-01T02:54:14;9.80;99.90
53282;DHT22;39167;52.794;6.892;2023-04-01T02:56:40;9.80;99.90
53282;DHT22;39167;52.794;6.892;2023-04-01T02:59:06;9.90;99.90
53282;DHT22;39167;52.794;6.892;2023-04-01T03:01:31;9.90;99.90
53282;DHT22;39167;52.794;6.892;2023-04-01T03:03:57;9.80;99.90
53282;DHT22;39167;52.794;6.892;2023-04-01T03:06:23;9.80;99.90
53282;DHT22;39167;52.794;6.892;2023-04-01T03:08:49;9.80;99.90
53282;DHT22;39167;52.794;6.892;2023-04-01T03:11:14;9.80;99.90
53282;DHT22;39167;52.794;6.892;2023-04-01T03:13:40;9.80;99.90
53282;DHT22;39167;52.794;6.892;2023-04-01T03:16:06;9.90;99.90
53282;DHT22;39167;52.794;6.892;2023-04-01T03:18:32;9.80;99.90
53282;DHT22;39167;52.794;6.892;2023-04-01T03:21:16;9.90;99.90
53282;DHT22;39167;52.794;6.892;2023-04-01T03:23:42;9.80;99.90
53282;DHT22;39167;52.794;6.892;2023-04-01T03:26:08;9.80;99.90
53282;DHT22;39167;52.794;6.892;2023-04-01T03:28:34;9.80;99.90
53282;DHT22;39167;52.794;6.892;2023-04-01T03:31:00;9.80;99.90
53282;DHT22;39167;52.794;6.892;2023-04-01T03:33:25;9.80;99.90
53282;DHT22;39167;52.794;6.892;2023-04-01T03:35:51;9.80;99.90
53282;DHT22;39167;52.794;6.892;2023-04-01T03:38:18;9.80;99.90
53282;DHT22;39167;52.794;6.892;2023-04-01T03:40:44;9.80;99.90
53282;DHT22;39167;52.794;6.892;2023-04-01T03:43:10;9.80;99.90
53282;DHT22;39167;52.794;6.892;2023-04-01T03:45:43;9.90;99.90
53282;DHT22;39167;52.794;6.892;2023-04-01T03:48:08;9.80;99.90
53282;DHT22;39167;52.794;6.892;2023-04-01T03:50:34;9.80;99.90
53282;DHT22;39167;52.794;6.892;2023-04-01T03:53:00;9.80;99.90
53282;DHT22;39167;52.794;6.892;2023-04-01T03:55:26;9.80;99.90
53282;DHT22;39167;52.794;6.892;2023-04-01T03:57:51;9.80;99.90
53282;DHT22;39167;52.794;6.892;2023-04-01T04:00:17;9.80;99.90
53282;DHT22;39167;52.794;6.892;2023-04-01T04:02:44;9.80;99.90
53282;DHT22;39167;52.794;6.892;2023-04-01T04:05:10;9.80;99.90
53282;DHT22;39167;52.794;6.892;2023-04-01T04:07:36;9.80;99.90
53282;DHT22;39167;52.794;6.892;2023-04-01T04:10:02;9.80;99.90
53282;DHT22;39167;52.794;6.892;2023-04-01T04:12:28;9.80;99.90
53282;DHT22;39167;52.794;6.892;2023-04-01T04:14:54;9.80;99.90
53282;DHT22;39167;52.794;6.892;2023-04-01T04:17:19;9.80;99.90
53282;DHT22;39167;52.794;6.892;2023-04-01T04:19:45;9.80;99.90
53282;DHT22;39167;52.794;6.892;2023-04-01T04:22:11;9.80;99.90
53282;DHT22;39167;52.794;6.892;2023-04-01T04:24:38;9.80;99.90
53282;DHT22;39167;52.794;6.892;2023-04-01T04:27:04;9.80;99.90
53282;DHT22;39167;52.794;6.892;2023-04-01T04:29:30;9.80;99.90
53282;DHT22;39167;52.794;6.892;2023-04-01T04:31:55;9.80;99.90
53282;DHT22;39167;52.794;6.892;2023-04-01T04:34:21;9.80;99.90
53282;DHT22;39167;52.794;6.892;2023-04-01T04:36:48;9.80;99.90
53282;DHT22;39167;52.794;6.892;2023-04-01T04:39:14;9.80;99.90
53282;DHT22;39167;52.794;6.892;2023-04-01T04:41:40;9.80;99.90
53282;DHT22;39167;52.794;6.892;2023-04-01T04:44:06;9.80;99.90
53282;DHT22;39167;52.794;6.892;2023-04-01T04:46:32;9.80;99.90
53282;DHT22;39167;52.794;6.892;2023-04-01T04:48:58;9.80;99.90
53282;DHT22;39167;52.794;6.892;2023-04-01T04:51:24;9.80;99.90
53282;DHT22;39167;52.794;6.892;2023-04-01T04:53:50;9.80;99.90
53282;DHT22;39167;52.794;6.892;2023-04-01T04:56:20;9.80;99.90
53282;DHT22;39167;52.794;6.892;2023-04-01T04:58:46;9.80;99.90
53282;DHT22;39167;52.794;6.892;2023-04-01T05:01:14;9.80;99.90
53282;DHT22;39167;52.794;6.892;2023-04-01T05:03:41;9.80;99.90
53282;DHT22;39167;52.794;6.892;2023-04-01T05:06:08;9.80;99.90
53282;DHT22;39167;52.794;6.892;2023-04-01T05:08:34;9.80;99.90
53282;DHT22;39167;52.794;6.892;2023-04-01T05:11:01;9.80;99.90
53282;DHT22;39167;52.794;6.892;2023-04-01T05:13:28;9.80;99.90
53282;DHT22;39167;52.794;6.892;2023-04-01T05:15:54;9.80;99.90
53282;DHT22;39167;52.794;6.892;2023-04-01T05:18:20;9.80;99.90
53282;DHT22;39167;52.794;6.892;2023-04-01T05:20:53;9.80;99.90
53282;DHT22;39167;52.794;6.892;2023-04-01T05:23:20;9.80;99.90
53282;DHT22;39167;52.794;6.892;2023-04-01T05:25:48;9.80;99.90
53282;DHT22;39167;52.794;6.892;2023-04-01T05:28:14;9.80;99.90
53282;DHT22;39167;52.794;6.892;2023-04-01T05:30:43;9.80;99.90
53282;DHT22;39167;52.794;6.892;2023-04-01T05:33:10;9.80;99.90
53282;DHT22;39167;52.794;6.892;2023-04-01T05:35:36;9.80;99.90
53282;DHT22;39167;52.794;6.892;2023-04-01T05:38:03;9.80;99.90
53282;DHT22;39167;52.794;6.892;2023-04-01T05:40:29;9.80;99.90
53282;DHT22;39167;52.794;6.892;2023-04-01T05:42:56;9.80;99.90
53282;DHT22;39167;52.794;6.892;2023-04-01T05:45:22;9.80;99.90
53282;DHT22;39167;52.794;6.892;2023-04-01T05:47:48;9.80;99.90
53282;DHT22;39167;52.794;6.892;2023-04-01T05:50:13;9.80;99.90
53282;DHT22;39167;52.794;6.892;2023-04-01T05:52:39;9.80;99.90
53282;DHT22;39167;52.794;6.892;2023-04-01T05:55:05;9.80;99.90
53282;DHT22;39167;52.794;6.892;2023-04-01T05:57:31;9.80;99.90
53282;DHT22;39167;52.794;6.892;2023-04-01T05:59:57;9.80;99.90
53282;DHT22;39167;52.794;6.892;2023-04-01T06:02:23;9.80;99.90
53282;DHT22;39167;52.794;6.892;2023-04-01T06:04:49;9.80;99.90
53282;DHT22;39167;52.794;6.892;2023-04-01T06:07:19;9.90;99.90
53282;DHT22;39167;52.794;6.892;2023-04-01T06:09:45;9.80;99.90
53282;DHT22;39167;52.794;6.892;2023-04-01T06:15:03;9.80;99.90
53282;DHT22;39167;52.794;6.892;2023-04-01T06:37:10;9.80;99.90
53282;DHT22;39167;52.794;6.892;2023-04-01T06:39:49;9.80;99.90
53282;DHT22;39167;52.794;6.892;2023-04-01T06:51:12;9.90;99.90
53282;DHT22;39167;52.794;6.892;2023-04-01T06:53:56;9.80;99.90
53282;DHT22;39167;52.794;6.892;2023-04-01T06:56:27;9.80;99.90
53282;DHT22;39167;52.794;6.892;2023-04-01T06:59:12;9.80;99.90
53282;DHT22;39167;52.794;6.892;2023-04-01T07:01:47;9.90;99.90
53282;DHT22;39167;52.794;6.892;2023-04-01T07:06:54;9.90;99.90
53282;DHT22;39167;52.794;6.892;2023-04-01T07:09:25;9.90;99.90
53282;DHT22;39167;52.794;6.892;2023-04-01T07:11:53;9.90;99.90
53282;DHT22;39167;52.794;6.892;2023-04-01T07:14:32;9.90;99.90
53282;DHT22;39167;52.794;6.892;2023-04-01T07:17:00;9.90;99.90
53282;DHT22;39167;52.794;6.892;2023-04-01T07:19:45;9.90;99.90
53282;DHT22;39167;52.794;6.892;2023-04-01T07:22:33;9.90;99.90
53282;DHT22;39167;52.794;6.892;2023-04-01T07:25:20;10.00;99.90
53282;DHT22;39167;52.794;6.892;2023-04-01T07:27:46;10.00;99.90
53282;DHT22;39167;52.794;6.892;2023-04-01T07:30:21;10.00;99.90
53282;DHT22;39167;52.794;6.892;2023-04-01T07:36:08;10.00;99.90
53282;DHT22;39167;52.794;6.892;2023-04-01T07:49:06;10.00;99.90
53282;DHT22;39167;52.794;6.892;2023-04-01T07:54:51;10.00;99.90
53282;DHT22;39167;52.794;6.892;2023-04-01T07:57:19;10.00;99.90
53282;DHT22;39167;52.794;6.892;2023-04-01T08:02:48;10.10;99.90
53282;DHT22;39167;52.794;6.892;2023-04-01T08:05:26;10.10;99.90
53282;DHT22;39167;52.794;6.892;2023-04-01T08:08:17;10.40;99.90
53282;DHT22;39167;52.794;6.892;2023-04-01T08:10:55;10.10;99.90
53282;DHT22;39167;52.794;6.892;2023-04-01T08:13:41;10.10;99.90
53282;DHT22;39167;52.794;6.892;2023-04-01T08:16:54;10.10;99.90
53282;DHT22;39167;52.794;6.892;2023-04-01T08:22:30;10.20;99.90
53282;DHT22;39167;52.794;6.892;2023-04-01T08:25:02;10.20;99.90
53282;DHT22;39167;52.794;6.892;2023-04-01T08:27:43;10.20;99.90
53282;DHT22;39167;52.794;6.892;2023-04-01T08:30:21;10.30;99.90
53282;DHT22;39167;52.794;6.892;2023-04-01T08:33:10;10.30;99.90
53282;DHT22;39167;52.794;6.892;2023-04-01T08:38:15;10.30;99.90
53282;DHT22;39167;52.794;6.892;2023-04-01T08:44:04;10.40;99.90
53282;DHT22;39167;52.794;6.892;2023-04-01T08:58:33;10.60;99.90
53282;DHT22;39167;52.794;6.892;2023-04-01T09:00:33;10.60;99.90
53282;DHT22;39167;52.794;6.892;2023-04-01T09:28:07;10.80;99.90
53282;DHT22;39167;52.794;6.892;2023-04-01T09:37:03;10.90;99.90
53282;DHT22;39167;52.794;6.892;2023-04-01T09:39:42;11.00;99.90
53282;DHT22;39167;52.794;6.892;2023-04-01T09:42:44;11.00;99.90
53282;DHT22;39167;52.794;6.892;2023-04-01T09:45:42;11.10;99.90
53282;DHT22;39167;52.794;6.892;2023-04-01T09:53:42;11.20;99.90
53282;DHT22;39167;52.794;6.892;2023-04-01T10:13:26;11.40;99.90
53282;DHT22;39167;52.794;6.892;2023-04-01T10:16:09;11.40;99.90
53282;DHT22;39167;52.794;6.892;2023-04-01T10:33:25;11.70;99.90
53282;DHT22;39167;52.794;6.892;2023-04-01T10:50:46;11.80;99.90
53282;DHT22;39167;52.794;6.892;2023-04-01T11:33:14;12.10;99.90
53282;DHT22;39167;52.794;6.892;2023-04-01T11:44:26;11.90;99.90
53282;DHT22;39167;52.794;6.892;2023-04-01T11:49:59;11.70;99.90
53282;DHT22;39167;52.794;6.892;2023-04-01T12:05:58;11.20;99.90
53282;DHT22;39167;52.794;6.892;2023-04-01T12:09:01;11.20;99.90
53282;DHT22;39167;52.794;6.892;2023-04-01T12:11:38;11.10;99.90
53282;DHT22;39167;52.794;6.892;2023-04-01T12:16:53;11.10;99.90
53282;DHT22;39167;52.794;6.892;2023-04-01T12:19:35;11.10;99.90
53282;DHT22;39167;52.794;6.892;2023-04-01T12:28:25;11.00;99.90
53282;DHT22;39167;52.794;6.892;2023-04-01T12:31:05;11.00;99.90
53282;DHT22;39167;52.794;6.892;2023-04-01T12:37:03;11.00;99.90
53282;DHT22;39167;52.794;6.892;2023-04-01T12:39:48;10.90;99.90
53282;DHT22;39167;52.794;6.892;2023-04-01T12:42:43;10.90;99.90
53282;DHT22;39167;52.794;6.892;2023-04-01T12:45:37;10.80;99.90
53282;DHT22;39167;52.794;6.892;2023-04-01T12:56:24;10.70;99.90
53282;DHT22;39167;52.794;6.892;2023-04-01T12:59:01;10.70;99.90
53282;DHT22;39167;52.794;6.892;2023-04-01T13:09:45;10.60;99.90
53282;DHT22;39167;52.794;6.892;2023-04-01T13:26:18;10.40;99.90
53282;DHT22;39167;52.794;6.892;2023-04-01T13:28:58;10.40;99.90
53282;DHT22;39167;52.794;6.892;2023-04-01T13:37:15;10.30;99.90
53282;DHT22;39167;52.794;6.892;2023-04-01T13:51:43;10.20;99.90
53282;DHT22;39167;52.794;6.892;2023-04-01T13:54:42;10.10;99.90
53282;DHT22;39167;52.794;6.892;2023-04-01T13:57:22;10.10;99.90
53282;DHT22;39167;52.794;6.892;2023-04-01T14:02:29;10.10;99.90
53282;DHT22;39167;52.794;6.892;2023-04-01T14:11:15;10.10;99.90
53282;DHT22;39167;52.794;6.892;2023-04-01T14:13:56;10.10;99.90
53282;DHT22;39167;52.794;6.892;2023-04-01T14:28:16;10.10;99.90
53282;DHT22;39167;52.794;6.892;2023-04-01T14:31:52;10.10;99.90
53282;DHT22;39167;52.794;6.892;2023-04-01T14:50:29;9.80;99.90
53282;DHT22;39167;52.794;6.892;2023-04-01T14:52:59;9.80;99.90
53282;DHT22;39167;52.794;6.892;2023-04-01T14:58:17;9.70;99.90
53282;DHT22;39167;52.794;6.892;2023-04-01T15:00:52;9.70;99.90
53282;DHT22;39167;52.794;6.892;2023-04-01T15:03:22;9.70;99.90
53282;DHT22;39167;52.794;6.892;2023-04-01T15:17:30;9.70;99.90
53282;DHT22;39167;52.794;6.892;2023-04-01T15:36:51;9.50;99.90
53282;DHT22;39167;52.794;6.892;2023-04-01T15:39:24;9.50;99.90
53282;DHT22;39167;52.794;6.892;2023-04-01T15:46:57;9.40;99.90
53282;DHT22;39167;52.794;6.892;2023-04-01T15:49:44;10.20;99.90
53282;DHT22;39167;52.794;6.892;2023-04-01T16:00:34;9.30;99.90
53282;DHT22;39167;52.794;6.892;2023-04-01T16:03:15;9.30;99.90
53282;DHT22;39167;52.794;6.892;2023-04-01T16:20:17;8.90;99.90
53282;DHT22;39167;52.794;6.892;2023-04-01T16:22:49;8.90;99.90
53282;DHT22;39167;52.794;6.892;2023-04-01T16:25:26;8.90;99.90
53282;DHT22;39167;52.794;6.892;2023-04-01T16:37:03;8.80;99.90
53282;DHT22;39167;52.794;6.892;2023-04-01T16:47:35;8.70;99.90
53282;DHT22;39167;52.794;6.892;2023-04-01T16:58:01;8.60;99.90
53282;DHT22;39167;52.794;6.892;2023-04-01T17:00:48;8.60;99.90
53282;DHT22;39167;52.794;6.892;2023-04-01T17:03:25;8.60;99.90
53282;DHT22;39167;52.794;6.892;2023-04-01T17:06:14;8.50;99.90
53282;DHT22;39167;52.794;6.892;2023-04-01T17:14:44;8.40;99.90
53282;DHT22;39167;52.794;6.892;2023-04-01T17:17:19;8.30;99.90
53282;DHT22;39167;52.794;6.892;2023-04-01T17:23:18;8.80;99.90
53282;DHT22;39167;52.794;6.892;2023-04-01T17:26:04;8.20;99.90
53282;DHT22;39167;52.794;6.892;2023-04-01T17:36:59;8.00;99.90
53282;DHT22;39167;52.794;6.892;2023-04-01T17:42:14;7.90;99.90
53282;DHT22;39167;52.794;6.892;2023-04-01T17:52:32;7.90;99.90
53282;DHT22;39167;52.794;6.892;2023-04-01T17:57:54;7.80;99.90
53282;DHT22;39167;52.794;6.892;2023-04-01T18:03:23;7.80;99.90
53282;DHT22;39167;52.794;6.892;2023-04-01T18:06:19;7.70;99.90
53282;DHT22;39167;52.794;6.892;2023-04-01T18:14:37;7.60;99.90
53282;DHT22;39167;52.794;6.892;2023-04-01T18:22:54;7.50;99.90
53282;DHT22;39167;52.794;6.892;2023-04-01T18:25:44;7.50;99.90
53282;DHT22;39167;52.794;6.892;2023-04-01T18:28:25;7.40;99.90
53282;DHT22;39167;52.794;6.892;2023-04-01T18:39:19;7.40;99.90
53282;DHT22;39167;52.794;6.892;2023-04-01T18:45:33;7.40;99.90
53282;DHT22;39167;52.794;6.892;2023-04-01T18:56:13;7.30;99.90
53282;DHT22;39167;52.794;6.892;2023-04-01T18:59:01;7.30;99.90
53282;DHT22;39167;52.794;6.892;2023-04-01T19:04:39;7.20;99.90
53282;DHT22;39167;52.794;6.892;2023-04-01T19:13:26;7.10;99.90
53282;DHT22;39167;52.794;6.892;2023-04-01T19:21:44;7.00;99.90
53282;DHT22;39167;52.794;6.892;2023-04-01T19:24:25;7.00;99.90
53282;DHT22;39167;52.794;6.892;2023-04-01T19:35:47;7.90;99.90
53282;DHT22;39167;52.794;6.892;2023-04-01T19:40:58;6.90;99.90
53282;DHT22;39167;52.794;6.892;2023-04-01T19:46:16;6.80;99.90
53282;DHT22;39167;52.794;6.892;2023-04-01T20:00:02;6.70;99.90
53282;DHT22;39167;52.794;6.892;2023-04-01T20:02:46;6.70;99.90
53282;DHT22;39167;52.794;6.892;2023-04-01T20:05:28;6.70;99.90
53282;DHT22;39167;52.794;6.892;2023-04-01T20:08:16;6.70;99.90
53282;DHT22;39167;52.794;6.892;2023-04-01T20:11:08;6.60;99.90
53282;DHT22;39167;52.794;6.892;2023-04-01T20:14:13;6.60;99.90
53282;DHT22;39167;52.794;6.892;2023-04-01T20:20:14;6.60;99.90
53282;DHT22;39167;52.794;6.892;2023-04-01T20:28:12;6.50;99.90
53282;DHT22;39167;52.794;6.892;2023-04-01T20:36:26;6.50;99.90
53282;DHT22;39167;52.794;6.892;2023-04-01T20:39:01;6.40;99.90
53282;DHT22;39167;52.794;6.892;2023-04-01T20:44:09;6.40;99.90
53282;DHT22;39167;52.794;6.892;2023-04-01T20:46:51;6.70;99.90
53282;DHT22;39167;52.794;6.892;2023-04-01T20:57:50;6.40;99.90
53282;DHT22;39167;52.794;6.892;2023-04-01T21:03:38;6.30;99.90
53282;DHT22;39167;52.794;6.892;2023-04-01T21:09:16;6.30;99.90
53282;DHT22;39167;52.794;6.892;2023-04-01T21:12:21;6.30;99.90
53282;DHT22;39167;52.794;6.892;2023-04-01T21:25:56;6.20;99.90
53282;DHT22;39167;52.794;6.892;2023-04-01T21:28:28;6.20;99.90
53282;DHT22;39167;52.794;6.892;2023-04-01T21:39:43;6.10;99.90
53282;DHT22;39167;52.794;6.892;2023-04-01T21:42:32;6.10;99.90
53282;DHT22;39167;52.794;6.892;2023-04-01T21:45:04;6.00;99.90
53282;DHT22;39167;52.794;6.892;2023-04-01T22:04:44;5.90;99.90
53282;DHT22;39167;52.794;6.892;2023-04-01T22:13:13;5.90;99.90
53282;DHT22;39167;52.794;6.892;2023-04-01T22:21:42;5.80;99.90
53282;DHT22;39167;52.794;6.892;2023-04-01T22:26:52;6.20;99.90
53282;DHT22;39167;52.794;6.892;2023-04-01T22:32:23;5.80;99.90
53282;DHT22;39167;52.794;6.892;2023-04-01T22:40:31;5.70;99.90
53282;DHT22;39167;52.794;6.892;2023-04-01T22:43:04;6.40;99.90
53282;DHT22;39167;52.794;6.892;2023-04-01T22:56:03;5.60;99.90
53282;DHT22;39167;52.794;6.892;2023-04-01T22:58:38;5.50;99.90
53282;DHT22;39167;52.794;6.892;2023-04-01T23:01:13;6.10;99.90
53282;DHT22;39167;52.794;6.892;2023-04-01T23:03:46;5.50;99.90
53282;DHT22;39167;52.794;6.892;2023-04-01T23:06:19;5.50;99.90
53282;DHT22;39167;52.794;6.892;2023-04-01T23:09:06;5.60;99.90
53282;DHT22;39167;52.794;6.892;2023-04-01T23:11:53;5.50;99.90
53282;DHT22;39167;52.794;6.892;2023-04-01T23:24:51;6.00;99.90
53282;DHT22;39167;52.794;6.892;2023-04-01T23:36:11;5.30;99.90
53282;DHT22;39167;52.794;6.892;2023-04-01T23:38:40;5.30;99.90
53282;DHT22;39167;52.794;6.892;2023-04-01T23:41:22;5.30;99.90
53282;DHT22;39167;52.794;6.892;2023-04-01T23:44:00;5.30;99.90
53282;DHT22;39167;52.794;6.892;2023-04-01T23:46:28;5.20;99.90
53282;DHT22;39167;52.794;6.892;2023-04-01T23:48:55;5.20;99.90
53282;DHT22;39167;52.794;6.892;2023-04-01T23:51:23;5.70;99.90
53282;DHT22;39167;52.794;6.892;2023-04-01T23:54:03;5.20;99.90
53282;DHT22;39167;52.794;6.892;2023-04-01T23:56:37;5.20;99.90
53282;DHT22;39167;52.794;6.892;2023-04-01T23:59:03;5.10;99.90
